Terminal Aerodrome Forecast
Issued by NWS

Home | Current Version | Previous Version | Text Only | Print | Product List | Glossary On
Versions: 1 2 3 4 5 6 7 8 9 10 11 12 13 14 15 16 17 18 19 20 21
347
FTUS46 KEKA 291742
TAFUKI
TAF
KUKI 291742Z 2918/3018 34003KT P6SM FEW250
     FM291900 31008KT P6SM FEW050 SCT080 BKN250
     FM300000 31006KT P6SM VCSH SCT050 OVC080
     FM300600 VRB03KT P6SM OVC025
     FM300800 31003KT P6SM FEW250=

USA.gov is the U.S. government's official web portal to all federal, state and local government web resources and services.